createdAt,value
2022-08-05T00:00:52.164Z,24.21
2022-08-05T00:03:55.089Z,24.12
2022-08-05T00:07:00.146Z,24.10
2022-08-05T00:10:27.091Z,24.07
2022-08-05T00:13:39.648Z,24.04
2022-08-05T00:16:52.497Z,23.99
2022-08-05T00:20:02.838Z,23.92
2022-08-05T00:23:12.460Z,23.87
2022-08-05T00:26:16.489Z,23.76
2022-08-05T00:29:25.711Z,23.75
2022-08-05T00:32:28.574Z,23.65
2022-08-05T00:35:33.209Z,23.58
2022-08-05T00:38:36.216Z,23.60
2022-08-05T00:41:52.217Z,23.57
2022-08-05T00:44:58.409Z,23.53
2022-08-05T00:48:05.804Z,23.39
2022-08-05T00:51:09.032Z,23.44
2022-08-05T00:54:31.594Z,23.14
2022-08-05T00:57:55.550Z,23.44
2022-08-05T01:00:57.181Z,23.36
2022-08-05T01:04:01.239Z,23.38
2022-08-05T01:07:05.244Z,23.38
2022-08-05T01:10:10.547Z,23.35
2022-08-05T01:13:57.332Z,23.35
2022-08-05T01:17:05.367Z,23.32
2022-08-05T01:20:27.058Z,23.29
2022-08-05T01:23:36.432Z,23.28
2022-08-05T01:27:00.123Z,23.25
2022-08-05T01:30:19.067Z,23.23
2022-08-05T01:33:53.503Z,23.12
2022-08-05T01:37:01.619Z,23.18
2022-08-05T01:40:06.817Z,23.14
2022-08-05T01:43:10.220Z,23.13
2022-08-05T01:46:41.925Z,22.98
2022-08-05T01:50:02.296Z,23.05
2022-08-05T01:53:13.953Z,23.08
2022-08-05T01:58:10.035Z,23.01
2022-08-05T01:59:41.255Z,23.11
2022-08-05T02:02:56.366Z,23.12
2022-08-05T02:06:33.328Z,23.07
2022-08-05T02:09:28.271Z,22.92
2022-08-05T02:12:44.899Z,22.82
2022-08-05T02:16:16.441Z,22.74
2022-08-05T02:19:47.440Z,22.74
2022-08-05T02:22:59.854Z,22.75
2022-08-05T02:26:05.757Z,22.75
2022-08-05T02:29:21.706Z,22.78
2022-08-05T02:32:31.658Z,22.76
2022-08-05T02:35:37.604Z,22.77
2022-08-05T02:38:42.956Z,22.71
2022-08-05T02:42:00.790Z,22.68
2022-08-05T02:45:04.885Z,22.59
2022-08-05T02:48:12.445Z,22.62
2022-08-05T02:51:16.273Z,22.55
2022-08-05T02:54:35.651Z,22.56
2022-08-05T02:58:11.881Z,22.50
2022-08-05T03:01:03.390Z,22.50
2022-08-05T03:04:13.991Z,22.47
2022-08-05T03:07:40.391Z,22.48
2022-08-05T03:11:01.116Z,22.48
2022-08-05T03:14:08.064Z,22.47
2022-08-05T03:17:11.100Z,22.36
2022-08-05T03:20:13.978Z,22.39
2022-08-05T03:23:18.129Z,22.34
2022-08-05T03:26:30.873Z,22.37
2022-08-05T03:29:44.818Z,22.42
2022-08-05T03:33:07.280Z,22.36
2022-08-05T03:36:12.115Z,22.41
2022-08-05T03:39:20.173Z,22.44
2022-08-05T03:42:32.376Z,22.43
2022-08-05T03:45:55.208Z,22.40
2022-08-05T03:48:59.641Z,22.39
2022-08-05T03:52:39.332Z,22.38
2022-08-05T03:56:05.915Z,22.34
2022-08-05T03:59:00.634Z,22.30
2022-08-05T04:02:04.801Z,22.20
2022-08-05T04:05:10.387Z,22.36
2022-08-05T04:08:14.609Z,22.37
2022-08-05T04:11:50.853Z,22.38
2022-08-05T04:14:57.628Z,22.49
2022-08-05T04:18:06.811Z,22.49
2022-08-05T04:21:11.129Z,22.47
2022-08-05T04:24:19.088Z,22.63
2022-08-05T04:27:41.882Z,22.65
2022-08-05T04:30:48.042Z,22.73
2022-08-05T04:34:18.576Z,22.68
2022-08-05T04:37:13.694Z,22.72
2022-08-05T04:40:17.056Z,22.69
2022-08-05T04:43:22.434Z,22.66
2022-08-05T04:46:28.149Z,22.62
2022-08-05T04:50:01.119Z,22.72
2022-08-05T04:52:54.181Z,22.77
2022-08-05T04:56:14.745Z,22.83
2022-08-05T04:59:22.995Z,22.81
2022-08-05T05:02:43.304Z,22.88
2022-08-05T05:06:39.187Z,23.14
2022-08-05T05:09:14.027Z,23.14
2022-08-05T05:12:19.906Z,23.18
2022-08-05T05:15:57.004Z,23.18
2022-08-05T05:19:16.375Z,23.18
2022-08-05T05:22:24.452Z,23.23
2022-08-05T05:25:32.564Z,23.30
2022-08-05T05:28:44.971Z,23.38
2022-08-05T05:31:48.002Z,23.45
2022-08-05T05:34:52.452Z,23.51
2022-08-05T05:37:59.464Z,23.59
2022-08-05T05:41:04.573Z,23.65
2022-08-05T05:44:35.794Z,23.73
2022-08-05T05:48:06.224Z,23.82
2022-08-05T05:50:57.873Z,23.93
2022-08-05T05:54:00.925Z,24.07
2022-08-05T05:57:03.701Z,24.21
2022-08-05T06:00:19.118Z,24.31
2022-08-05T06:03:40.197Z,24.36
2022-08-05T06:06:47.260Z,24.54
2022-08-05T06:10:04.349Z,24.64
2022-08-05T06:13:09.689Z,24.64
2022-08-05T06:16:31.754Z,24.64
2022-08-05T06:19:35.777Z,24.78
2022-08-05T06:22:40.562Z,24.96
2022-08-05T06:26:13.079Z,25.05
2022-08-05T06:29:25.041Z,25.05
2022-08-05T06:32:31.058Z,25.27
2022-08-05T06:36:03.715Z,25.50
2022-08-05T06:38:56.689Z,25.68
2022-08-05T06:42:04.000Z,25.82
2022-08-05T06:45:09.177Z,25.96
2022-08-05T06:48:50.373Z,26.14
2022-08-05T06:51:34.988Z,26.28
2022-08-05T06:54:38.876Z,26.41
2022-08-05T06:58:02.881Z,26.53
2022-08-05T07:01:06.457Z,26.64
2022-08-05T07:04:09.485Z,26.76
2022-08-05T07:07:12.818Z,27.03
2022-08-05T07:10:18.044Z,27.11
2022-08-05T07:13:58.792Z,27.36
2022-08-05T07:17:58.596Z,27.48
2022-08-05T07:20:37.215Z,27.75
2022-08-05T07:23:49.879Z,27.91
2022-08-05T07:26:53.497Z,27.98
2022-08-05T07:30:27.726Z,28.07
2022-08-05T07:33:36.477Z,28.30
2022-08-05T07:36:40.160Z,28.16
2022-08-05T07:40:26.359Z,28.50
2022-08-05T07:43:20.401Z,28.87
2022-08-05T07:46:28.411Z,29.21
2022-08-05T07:49:31.758Z,29.55
2022-08-05T07:52:44.255Z,29.65
2022-08-05T07:56:05.464Z,29.89
2022-08-05T07:59:09.964Z,30.07
2022-08-05T08:02:15.711Z,30.38
2022-08-05T08:05:20.582Z,30.62
2022-08-05T08:08:23.205Z,30.51
2022-08-05T08:11:47.061Z,30.64
2022-08-05T08:14:50.880Z,31.03
2022-08-05T08:17:54.805Z,30.87
2022-08-05T08:21:02.288Z,31.18
2022-08-05T08:24:13.552Z,31.61
2022-08-05T08:27:16.758Z,31.61
2022-08-05T08:30:33.919Z,31.73
2022-08-05T08:33:40.663Z,31.98
2022-08-05T08:36:49.121Z,32.23
2022-08-05T08:39:57.508Z,32.61
2022-08-05T08:45:17.109Z,32.88
2022-08-05T08:46:24.462Z,32.89
2022-08-05T08:50:06.197Z,33.03
2022-08-05T08:52:55.888Z,33.15
2022-08-05T08:56:04.015Z,33.52
2022-08-05T08:59:14.929Z,33.86
2022-08-05T09:02:24.340Z,33.59
2022-08-05T09:05:38.586Z,33.67
2022-08-05T09:08:52.455Z,34.24
2022-08-05T09:11:59.333Z,34.26
2022-08-05T09:15:09.562Z,34.86
2022-08-05T09:18:13.440Z,34.59
2022-08-05T09:21:20.688Z,34.92
2022-08-05T09:24:39.051Z,34.82
2022-08-05T09:28:05.252Z,35.28
2022-08-05T09:32:35.962Z,34.86
2022-08-05T09:34:48.443Z,34.96
2022-08-05T09:38:12.072Z,35.36
2022-08-05T09:41:16.455Z,35.74
2022-08-05T09:44:42.533Z,35.89
2022-08-05T09:47:55.171Z,36.12
2022-08-05T09:51:03.438Z,36.08
2022-08-05T09:54:21.417Z,36.25
2022-08-05T09:57:35.190Z,36.57
2022-08-05T10:00:38.632Z,36.64
2022-08-05T10:03:58.749Z,36.86
2022-08-05T10:07:19.481Z,37.39
2022-08-05T10:10:32.672Z,37.40
2022-08-05T10:13:45.536Z,37.29
2022-08-05T10:16:53.123Z,37.52
2022-08-05T10:20:04.020Z,37.83
2022-08-05T10:23:34.091Z,37.91
2022-08-05T10:26:51.654Z,37.86
2022-08-05T10:31:19.913Z,37.96
2022-08-05T10:33:37.099Z,38.31
2022-08-05T10:36:42.949Z,38.82
2022-08-05T10:39:59.442Z,38.76
2022-08-05T10:43:35.570Z,38.49
2022-08-05T10:46:50.709Z,38.51
2022-08-05T10:50:32.276Z,38.97
2022-08-05T10:53:39.426Z,39.76
2022-08-05T10:56:53.483Z,39.86
2022-08-05T11:00:19.071Z,39.59
2022-08-05T11:03:26.266Z,38.90
2022-08-05T11:06:31.048Z,39.32
2022-08-05T11:09:47.251Z,39.31
2022-08-05T11:12:50.852Z,39.31
2022-08-05T11:16:47.427Z,39.61
2022-08-05T11:20:10.007Z,39.09
2022-08-05T11:23:33.273Z,39.22
2022-08-05T11:26:36.482Z,39.42
2022-08-05T11:29:41.019Z,39.34
2022-08-05T11:32:43.701Z,39.91
2022-08-05T11:36:08.238Z,40.15
2022-08-05T11:39:14.372Z,40.47
2022-08-05T11:42:23.567Z,40.64
2022-08-05T11:46:29.865Z,40.36
2022-08-05T11:48:54.333Z,40.72
2022-08-05T11:51:57.617Z,40.35
2022-08-05T11:55:07.283Z,40.81
2022-08-05T11:58:12.050Z,40.40
2022-08-05T12:01:21.050Z,40.81
2022-08-05T12:04:26.143Z,40.70
2022-08-05T12:08:03.300Z,40.70
2022-08-05T12:10:59.428Z,40.73
2022-08-05T12:14:08.590Z,41.21
2022-08-05T12:18:03.311Z,41.53
2022-08-05T12:20:38.824Z,41.31
2022-08-05T12:23:52.783Z,40.79
2022-08-05T12:26:56.513Z,40.66
2022-08-05T12:30:15.450Z,40.28
2022-08-05T12:33:27.579Z,40.93
2022-08-05T12:36:31.141Z,40.79
2022-08-05T12:39:37.235Z,41.14
2022-08-05T12:42:41.544Z,41.32
2022-08-05T12:45:54.792Z,41.14
2022-08-05T12:49:00.692Z,41.39
2022-08-05T12:52:12.472Z,40.75
2022-08-05T12:55:26.325Z,40.85
2022-08-05T12:58:50.396Z,40.87
2022-08-05T13:02:07.087Z,40.26
2022-08-05T13:05:11.155Z,40.15
2022-08-05T13:08:18.591Z,40.56
2022-08-05T13:11:35.071Z,40.12
2022-08-05T13:14:47.943Z,39.94
2022-08-05T13:18:08.554Z,40.35
2022-08-05T13:21:11.404Z,40.18
2022-08-05T13:24:36.513Z,40.00
2022-08-05T13:27:46.709Z,39.87
2022-08-05T13:30:53.181Z,40.03
2022-08-05T13:34:21.145Z,39.96
2022-08-05T13:37:34.664Z,39.95
2022-08-05T13:40:49.955Z,39.54
2022-08-05T13:43:55.453Z,39.14
2022-08-05T13:47:01.827Z,39.25
2022-08-05T13:50:11.202Z,39.47
2022-08-05T13:53:16.026Z,39.34
2022-08-05T13:56:19.203Z,39.40
2022-08-05T13:59:25.000Z,39.02
2022-08-05T14:02:29.787Z,38.72
2022-08-05T14:06:24.565Z,38.46
2022-08-05T14:08:57.005Z,38.43
2022-08-05T14:12:17.299Z,38.76
2022-08-05T14:16:07.885Z,38.89
2022-08-05T14:18:43.827Z,38.16
2022-08-05T14:22:10.446Z,38.42
2022-08-05T14:25:19.204Z,37.87
2022-08-05T14:28:26.323Z,37.76
2022-08-05T14:32:03.972Z,37.62
2022-08-05T14:34:56.847Z,37.90
2022-08-05T14:38:01.202Z,37.53
2022-08-05T14:41:07.464Z,37.51
2022-08-05T14:44:20.541Z,37.22
2022-08-05T14:47:58.396Z,37.44
2022-08-05T14:50:46.365Z,37.15
2022-08-05T14:54:26.791Z,37.20
2022-08-05T14:57:14.334Z,37.31
2022-08-05T15:00:20.034Z,37.32
2022-08-05T15:03:23.050Z,37.20
2022-08-05T15:06:27.988Z,37.27
2022-08-05T15:09:51.919Z,36.96
2022-08-05T15:13:03.640Z,36.85
2022-08-05T15:16:06.807Z,36.77
2022-08-05T15:19:23.305Z,36.52
2022-08-05T15:22:28.406Z,36.53
2022-08-05T15:25:41.363Z,36.71
2022-08-05T15:28:54.091Z,36.71
2022-08-05T15:31:56.624Z,36.56
2022-08-05T15:34:59.553Z,36.51
2022-08-05T15:38:34.854Z,36.31
2022-08-05T15:41:55.837Z,36.21
2022-08-05T15:44:58.290Z,35.96
2022-08-05T15:48:02.473Z,35.66
2022-08-05T15:51:05.872Z,35.55
2022-08-05T15:54:09.054Z,35.56
2022-08-05T15:57:17.707Z,35.43
2022-08-05T16:00:30.548Z,35.30
2022-08-05T16:03:35.668Z,35.32
2022-08-05T16:06:43.559Z,35.33
2022-08-05T16:09:46.841Z,35.27
2022-08-05T16:12:49.641Z,35.02
2022-08-05T16:15:52.593Z,34.89
2022-08-05T16:18:55.355Z,34.66
2022-08-05T16:22:03.450Z,34.60
2022-08-05T16:25:09.905Z,34.42
2022-08-05T16:28:14.155Z,34.41
2022-08-05T16:31:18.341Z,34.32
2022-08-05T16:34:23.178Z,34.24
2022-08-05T16:38:16.394Z,34.16
2022-08-05T16:40:55.358Z,34.12
2022-08-05T16:44:02.858Z,33.98
2022-08-05T16:47:07.013Z,33.85
2022-08-05T16:50:30.107Z,33.76
2022-08-05T16:54:05.649Z,33.74
2022-08-05T16:56:56.956Z,33.61
2022-08-05T17:00:08.290Z,33.38
2022-08-05T17:03:15.248Z,33.29
2022-08-05T17:06:24.527Z,33.26
2022-08-05T17:09:30.538Z,33.13
2022-08-05T17:12:51.514Z,33.08
2022-08-05T17:16:02.742Z,32.99
2022-08-05T17:19:17.917Z,32.93
2022-08-05T17:22:25.644Z,32.69
2022-08-05T17:25:39.661Z,32.42
2022-08-05T17:28:42.841Z,32.25
2022-08-05T17:31:58.191Z,32.16
2022-08-05T17:35:02.090Z,32.23
2022-08-05T17:38:08.309Z,32.26
2022-08-05T17:41:22.797Z,32.12
2022-08-05T17:44:33.789Z,32.18
2022-08-05T17:47:38.345Z,32.15
2022-08-05T17:50:42.088Z,32.12
2022-08-05T17:53:45.922Z,32.08
2022-08-05T17:56:57.441Z,31.94
2022-08-05T18:00:04.885Z,31.93
2022-08-05T18:03:08.950Z,31.94
2022-08-05T18:06:15.203Z,31.94
2022-08-05T18:09:18.553Z,31.84
2022-08-05T18:12:23.755Z,31.81
2022-08-05T18:15:27.660Z,31.71
2022-08-05T18:18:34.029Z,31.58
2022-08-05T18:22:09.323Z,31.50
2022-08-05T18:25:06.718Z,31.51
2022-08-05T18:28:09.882Z,31.44
2022-08-05T18:31:12.714Z,31.41
2022-08-05T18:34:21.729Z,31.28
2022-08-05T18:37:34.416Z,31.10
2022-08-05T18:41:58.004Z,30.99
2022-08-05T18:44:07.975Z,31.00
2022-08-05T18:47:12.285Z,30.90
2022-08-05T18:50:45.287Z,30.91
2022-08-05T18:53:50.827Z,30.86
2022-08-05T18:56:53.385Z,30.76
2022-08-05T19:00:02.406Z,30.66
2022-08-05T19:03:06.137Z,30.59
2022-08-05T19:06:19.119Z,30.46
2022-08-05T19:09:25.432Z,30.37
2022-08-05T19:12:29.789Z,30.24
2022-08-05T19:15:58.976Z,30.13
2022-08-05T19:18:57.144Z,30.00
2022-08-05T19:21:59.838Z,29.91
2022-08-05T19:25:04.172Z,29.75
2022-08-05T19:28:06.824Z,29.73
2022-08-05T19:31:13.474Z,29.65
2022-08-05T19:34:20.445Z,29.63
2022-08-05T19:37:34.847Z,29.51
2022-08-05T19:40:48.689Z,29.40
2022-08-05T19:44:06.955Z,29.48
2022-08-05T19:47:16.624Z,29.54
2022-08-05T19:50:20.145Z,29.66
2022-08-05T19:54:03.411Z,29.75
2022-08-05T19:56:45.673Z,29.77
2022-08-05T19:59:59.549Z,29.72
2022-08-05T20:03:14.014Z,29.58
2022-08-05T20:06:28.622Z,29.56
2022-08-05T20:09:54.909Z,29.55
2022-08-05T20:12:55.304Z,29.58
2022-08-05T20:15:59.624Z,29.47
2022-08-05T20:19:03.460Z,29.51
2022-08-05T20:22:05.989Z,29.43
2022-08-05T20:25:12.525Z,29.41
2022-08-05T20:28:15.062Z,29.24
2022-08-05T20:31:21.688Z,29.14
2022-08-05T20:34:25.672Z,29.07
2022-08-05T20:38:06.115Z,29.02
2022-08-05T20:40:51.319Z,28.94
2022-08-05T20:43:59.928Z,28.93
2022-08-05T20:47:06.728Z,28.87
2022-08-05T20:50:11.959Z,28.78
2022-08-05T20:53:36.800Z,28.79
2022-08-05T20:56:41.911Z,28.69
2022-08-05T21:00:10.336Z,28.64
2022-08-05T21:03:08.394Z,28.50
2022-08-05T21:06:28.305Z,28.37
2022-08-05T21:09:33.781Z,28.33
2022-08-05T21:12:39.704Z,28.20
2022-08-05T21:16:01.314Z,28.16
2022-08-05T21:19:04.365Z,28.16
2022-08-05T21:22:07.353Z,27.99
2022-08-05T21:25:12.448Z,27.96
2022-08-05T21:28:18.458Z,27.90
2022-08-05T21:31:26.057Z,27.77
2022-08-05T21:34:43.976Z,27.76
2022-08-05T21:37:58.684Z,27.79
2022-08-05T21:41:01.662Z,27.81
2022-08-05T21:44:07.036Z,27.82
2022-08-05T21:47:17.308Z,27.69
2022-08-05T21:50:33.339Z,27.63
2022-08-05T21:53:37.501Z,27.46
2022-08-05T21:56:44.476Z,27.41
2022-08-05T22:00:03.993Z,27.30
2022-08-05T22:03:15.369Z,27.23
2022-08-05T22:06:22.183Z,27.14
2022-08-05T22:09:25.476Z,27.10
2022-08-05T22:12:50.530Z,27.09
2022-08-05T22:16:04.632Z,27.05
2022-08-05T22:19:15.126Z,26.95
2022-08-05T22:22:53.650Z,26.88
2022-08-05T22:26:16.956Z,26.88
2022-08-05T22:29:26.191Z,26.91
2022-08-05T22:32:30.003Z,26.88
2022-08-05T22:35:48.616Z,26.88
2022-08-05T22:38:53.735Z,26.88
2022-08-05T22:42:11.141Z,26.90
2022-08-05T22:45:16.449Z,26.83
2022-08-05T22:48:22.169Z,26.83
2022-08-05T22:52:03.127Z,26.76
2022-08-05T22:54:52.677Z,26.67
2022-08-05T22:57:56.511Z,26.64
2022-08-05T23:01:00.794Z,26.54
2022-08-05T23:04:04.059Z,26.42
2022-08-05T23:07:08.221Z,26.30
2022-08-05T23:10:11.816Z,26.18
2022-08-05T23:13:14.416Z,26.15
2022-08-05T23:16:26.070Z,26.11
2022-08-05T23:19:38.388Z,26.04
2022-08-05T23:22:47.855Z,25.92
2022-08-05T23:25:55.130Z,26.02
2022-08-05T23:28:58.442Z,26.05
2022-08-05T23:32:01.261Z,26.01
2022-08-05T23:35:05.465Z,25.97
2022-08-05T23:38:08.333Z,25.83
2022-08-05T23:41:15.093Z,25.84
2022-08-05T23:44:19.785Z,25.87
2022-08-05T23:47:27.892Z,25.84
2022-08-05T23:50:36.201Z,25.87
2022-08-05T23:53:46.725Z,25.83
2022-08-05T23:56:49.829Z,25.80
